Time;durP1;ratioP1;P1;durP2;ratioP2;P2;SDS_P1;SDS_P2;PMS_P1;PMS_P2;Temp;Humidity;BMP_temperature;BMP_pressure;BME280_temperature;BME280_humidity;BME280_pressure;Samples;Min_cycle;Max_cycle;Signal;HPM_P1;HPM_P2
2020/12/13 00:00:08;;;;;;;12.18;9.55;;;;;;;;;;5080005;28;20211;-87
2020/12/13 00:02:42;;;;;;;9.88;8.43;;;;;;;;;;5080285;28;20208;-91
2020/12/13 00:05:09;;;;;;;8.48;7.57;;;;;;;;;;5080312;28;20211;-89
2020/12/13 00:07:37;;;;;;;9.48;7.22;;;;;;;;;;5080265;28;20281;-90
2020/12/13 00:10:04;;;;;;;10.85;7.90;;;;;;;;;;5079726;28;20226;-91
2020/12/13 00:12:36;;;;;;;9.75;8.18;;;;;;;;;;5080796;28;20649;-94
2020/12/13 00:15:03;;;;;;;10.18;8.15;;;;;;;;;;5081245;28;20716;-91
2020/12/13 00:17:30;;;;;;;10.25;8.60;;;;;;;;;;5080377;28;20197;-92
2020/12/13 00:19:58;;;;;;;9.32;7.28;;;;;;;;;;5079871;28;20211;-92
2020/12/13 00:22:28;;;;;;;12.05;7.65;;;;;;;;;;5081268;28;20193;-94
2020/12/13 00:25:03;;;;;;;9.50;7.40;;;;;;;;;;5080644;28;20221;-93
2020/12/13 00:27:30;;;;;;;11.23;8.27;;;;;;;;;;5079980;28;20224;-90
2020/12/13 00:29:57;;;;;;;8.60;7.05;;;;;;;;;;5079419;28;20490;-91
2020/12/13 00:32:29;;;;;;;8.95;7.78;;;;;;;;;;5079764;28;20224;-88
2020/12/13 00:34:56;;;;;;;13.25;7.05;;;;;;;;;;5079896;28;20231;-91
2020/12/13 00:37:23;;;;;;;7.07;6.38;;;;;;;;;;5079606;28;20197;-89
2020/12/13 00:39:50;;;;;;;7.82;7.10;;;;;;;;;;5079453;28;20197;-88
2020/12/13 00:42:18;;;;;;;8.90;7.20;;;;;;;;;;5079341;28;20232;-87
2020/12/13 00:44:46;;;;;;;8.50;7.32;;;;;;;;;;5079305;28;20260;-87
2020/12/13 00:47:30;;;;;;;7.75;6.82;;;;;;;;;;5079557;28;20636;-91
2020/12/13 00:49:57;;;;;;;10.88;8.52;;;;;;;;;;5078941;28;20181;-89
2020/12/13 00:52:24;;;;;;;11.50;9.13;;;;;;;;;;5079061;28;20729;-91
2020/12/13 00:54:56;;;;;;;11.73;8.80;;;;;;;;;;5079702;28;20197;-93
2020/12/13 00:58:18;;;;;;;10.73;8.60;;;;;;;;;;5079153;28;20193;-92
2020/12/13 01:03:26;;;;;;;12.05;9.68;;;;;;;;;;5005454;28;20238;-92
2020/12/13 01:05:53;;;;;;;10.88;8.68;;;;;;;;;;5018246;28;20196;-93
2020/12/13 01:09:07;;;;;;;9.80;8.00;;;;;;;;;;5017984;28;20191;-93
2020/12/13 01:11:37;;;;;;;10.13;8.02;;;;;;;;;;5018302;28;20198;-90
2020/12/13 01:14:05;;;;;;;10.70;8.32;;;;;;;;;;5017683;28;20225;-93
2020/12/13 01:16:33;;;;;;;11.82;8.65;;;;;;;;;;5017998;28;20553;-87
2020/12/13 01:19:00;;;;;;;9.73;8.68;;;;;;;;;;5017390;28;20222;-89
2020/12/13 01:21:29;;;;;;;10.57;8.45;;;;;;;;;;5017919;28;20187;-89
2020/12/13 01:23:59;;;;;;;10.23;8.38;;;;;;;;;;5017896;28;20302;-92
2020/12/13 01:26:27;;;;;;;10.98;8.80;;;;;;;;;;5017964;28;20211;-90
2020/12/13 01:29:15;;;;;;;12.60;8.98;;;;;;;;;;5017117;28;20250;-93
2020/12/13 01:31:45;;;;;;;12.57;9.65;;;;;;;;;;5017655;28;20274;-92
2020/12/13 01:34:17;;;;;;;10.30;8.43;;;;;;;;;;5017534;28;20596;-92
2020/12/13 01:36:47;;;;;;;11.02;9.35;;;;;;;;;;5031648;28;20197;-92
2020/12/13 01:39:14;;;;;;;13.98;10.07;;;;;;;;;;5078568;28;20477;-89
2020/12/13 01:41:41;;;;;;;10.98;7.80;;;;;;;;;;5078534;28;20201;-89
2020/12/13 01:44:09;;;;;;;10.00;8.35;;;;;;;;;;5078762;28;20493;-90
2020/12/13 01:46:36;;;;;;;9.85;8.30;;;;;;;;;;5078917;28;20473;-92
2020/12/13 01:49:07;;;;;;;10.15;7.90;;;;;;;;;;5077885;28;20201;-89
2020/12/13 01:51:48;;;;;;;11.27;9.35;;;;;;;;;;5078422;28;20234;-89
2020/12/13 01:54:16;;;;;;;10.23;8.38;;;;;;;;;;5078133;28;20216;-90
2020/12/13 01:56:47;;;;;;;12.60;9.57;;;;;;;;;;5078510;28;20284;-90
2020/12/13 01:59:18;;;;;;;11.07;8.93;;;;;;;;;;5078177;28;20217;-91
2020/12/13 02:01:47;;;;;;;12.25;9.02;;;;;;;;;;5078374;28;20197;-92
2020/12/13 02:04:20;;;;;;;10.15;8.80;;;;;;;;;;5078076;28;20546;-92
2020/12/13 02:06:51;;;;;;;11.35;8.43;;;;;;;;;;5078391;28;20439;-91
2020/12/13 02:09:22;;;;;;;10.25;8.60;;;;;;;;;;5078383;28;20201;-91
2020/12/13 02:11:49;;;;;;;9.30;8.20;;;;;;;;;;5078481;28;20228;-90
2020/12/13 02:14:17;;;;;;;9.93;8.00;;;;;;;;;;5098836;28;20475;-91
2020/12/13 02:16:45;;;;;;;9.13;7.95;;;;;;;;;;5081130;28;20276;-90
2020/12/13 02:19:13;;;;;;;12.02;9.45;;;;;;;;;;5078269;28;20192;-94
2020/12/13 02:21:44;;;;;;;10.45;8.10;;;;;;;;;;5079190;28;20444;-88
2020/12/13 02:24:13;;;;;;;11.43;8.10;;;;;;;;;;5078233;28;20192;-91
2020/12/13 02:26:41;;;;;;;11.02;9.02;;;;;;;;;;5079306;28;20200;-90
2020/12/13 02:29:08;;;;;;;12.13;9.48;;;;;;;;;;5077950;28;20225;-89
2020/12/13 02:31:36;;;;;;;11.02;8.73;;;;;;;;;;5078044;28;20185;-90
2020/12/13 02:34:04;;;;;;;10.18;8.15;;;;;;;;;;5078150;28;20291;-94
2020/12/13 02:36:31;;;;;;;9.68;7.88;;;;;;;;;;5090959;28;20204;-91
2020/12/13 02:38:58;;;;;;;7.90;6.95;;;;;;;;;;5099557;28;20204;-90
2020/12/13 02:41:26;;;;;;;7.65;6.75;;;;;;;;;;5087054;28;20597;-92
2020/12/13 02:43:53;;;;;;;8.90;7.38;;;;;;;;;;5090721;28;20193;-91
2020/12/13 02:46:20;;;;;;;9.73;7.63;;;;;;;;;;5089015;28;20272;-92
2020/12/13 02:48:47;;;;;;;8.23;7.38;;;;;;;;;;5088595;28;20192;-91
2020/12/13 02:51:14;;;;;;;9.77;8.07;;;;;;;;;;5085856;28;20217;-91
2020/12/13 02:53:54;;;;;;;8.02;6.63;;;;;;;;;;5089176;28;20233;-91
2020/12/13 02:56:26;;;;;;;7.88;5.65;;;;;;;;;;5086471;28;20224;-91
2020/12/13 02:58:53;;;;;;;8.93;6.97;;;;;;;;;;5100397;28;20224;-92
2020/12/13 03:01:43;;;;;;;8.95;7.50;;;;;;;;;;5086929;28;20268;-91
2020/12/13 03:04:12;;;;;;;8.50;6.68;;;;;;;;;;5084904;28;20482;-93
2020/12/13 03:06:42;;;;;;;8.90;7.57;;;;;;;;;;5086625;28;20207;-92
2020/12/13 03:09:12;;;;;;;8.43;6.97;;;;;;;;;;5078067;28;20193;-92
2020/12/13 03:11:40;;;;;;;8.68;6.78;;;;;;;;;;5077717;28;20188;-93
2020/12/13 03:14:07;;;;;;;8.68;6.38;;;;;;;;;;5077625;28;20282;-92
2020/12/13 03:16:34;;;;;;;7.88;6.38;;;;;;;;;;5077888;28;20199;-93
2020/12/13 03:19:01;;;;;;;10.93;7.20;;;;;;;;;;5083998;28;20192;-92
2020/12/13 03:22:48;;;;;;;10.73;7.82;;;;;;;;;;5109335;28;20215;-92
2020/12/13 03:25:15;;;;;;;9.90;7.25;;;;;;;;;;4957926;29;20193;-91
2020/12/13 03:27:43;;;;;;;11.20;7.60;;;;;;;;;;4961750;29;20714;-91
2020/12/13 03:30:10;;;;;;;9.93;7.55;;;;;;;;;;4962517;29;20496;-91
2020/12/13 03:32:37;;;;;;;8.73;6.93;;;;;;;;;;4961806;29;20280;-91
2020/12/13 03:35:05;;;;;;;7.13;6.32;;;;;;;;;;4962087;29;20304;-92
2020/12/13 03:37:32;;;;;;;9.85;8.10;;;;;;;;;;4961525;29;20186;-91
2020/12/13 03:39:59;;;;;;;10.55;7.00;;;;;;;;;;4962162;29;20291;-92
2020/12/13 03:42:26;;;;;;;10.65;7.47;;;;;;;;;;4962358;29;20197;-91
2020/12/13 03:44:54;;;;;;;11.90;7.70;;;;;;;;;;4962325;29;20181;-90
2020/12/13 03:47:21;;;;;;;10.02;7.20;;;;;;;;;;4961679;29;20451;-91
2020/12/13 03:49:48;;;;;;;10.10;7.80;;;;;;;;;;4961825;29;20197;-90
2020/12/13 03:52:15;;;;;;;10.18;7.20;;;;;;;;;;4961724;29;20465;-91
2020/12/13 03:54:42;;;;;;;8.38;6.72;;;;;;;;;;4962012;29;20225;-91
2020/12/13 03:57:09;;;;;;;10.35;7.85;;;;;;;;;;4962104;29;20197;-92
2020/12/13 03:59:36;;;;;;;9.00;7.20;;;;;;;;;;5006063;28;20232;-91
2020/12/13 04:02:04;;;;;;;8.73;7.80;;;;;;;;;;5101598;28;20460;-92
2020/12/13 04:04:31;;;;;;;9.05;7.40;;;;;;;;;;5121818;28;20226;-91
2020/12/13 04:06:58;;;;;;;9.93;7.18;;;;;;;;;;5121269;28;20199;-90
2020/12/13 04:09:25;;;;;;;11.68;7.97;;;;;;;;;;5121876;28;20206;-90
2020/12/13 04:11:52;;;;;;;9.60;7.70;;;;;;;;;;5122104;28;20196;-93
2020/12/13 04:14:19;;;;;;;10.07;8.07;;;;;;;;;;5120988;28;20196;-90
2020/12/13 04:16:46;;;;;;;9.00;7.00;;;;;;;;;;5121220;28;20176;-90
2020/12/13 04:19:14;;;;;;;11.95;7.47;;;;;;;;;;5121328;28;20195;-91
2020/12/13 04:21:42;;;;;;;8.90;7.35;;;;;;;;;;5120979;28;20199;-91
2020/12/13 04:24:09;;;;;;;10.52;8.40;;;;;;;;;;5120964;28;20204;-91
2020/12/13 04:26:36;;;;;;;9.93;8.02;;;;;;;;;;5120978;28;20200;-91
2020/12/13 04:29:04;;;;;;;9.93;7.72;;;;;;;;;;5120238;28;20232;-91
2020/12/13 04:31:31;;;;;;;8.63;7.57;;;;;;;;;;5121108;28;20180;-92
2020/12/13 04:33:58;;;;;;;9.23;7.00;;;;;;;;;;5120379;28;20211;-92
2020/12/13 04:36:28;;;;;;;10.05;7.57;;;;;;;;;;5119633;28;20279;-92
2020/12/13 04:38:55;;;;;;;8.00;7.00;;;;;;;;;;5120686;28;20189;-92
2020/12/13 04:41:25;;;;;;;9.90;7.53;;;;;;;;;;5120865;28;20213;-93
2020/12/13 04:43:53;;;;;;;8.63;6.65;;;;;;;;;;5121109;28;20209;-92
2020/12/13 04:46:25;;;;;;;10.50;6.90;;;;;;;;;;5120360;28;20267;-93
2020/12/13 04:48:53;;;;;;;10.30;8.60;;;;;;;;;;5120378;28;20423;-92
2020/12/13 04:51:32;;;;;;;8.10;6.50;;;;;;;;;;5121429;28;20196;-91
2020/12/13 04:54:05;;;;;;;11.50;7.68;;;;;;;;;;5058994;28;20312;-93
2020/12/13 04:56:37;;;;;;;10.57;7.43;;;;;;;;;;5058902;28;20206;-94
2020/12/13 04:59:05;;;;;;;12.98;8.85;;;;;;;;;;5058520;28;20232;-94
2020/12/13 05:01:32;;;;;;;10.50;7.50;;;;;;;;;;5059037;28;20468;-93
2020/12/13 05:03:59;;;;;;;10.55;7.90;;;;;;;;;;5058714;28;20204;-93
2020/12/13 05:06:26;;;;;;;8.63;7.38;;;;;;;;;;5059416;28;20292;-92
2020/12/13 05:08:54;;;;;;;9.75;8.27;;;;;;;;;;5058247;28;20225;-93
2020/12/13 05:11:44;;;;;;;9.10;7.40;;;;;;;;;;5069941;28;20188;-93
2020/12/13 05:14:19;;;;;;;10.45;7.88;;;;;;;;;;5120452;28;20226;-94
2020/12/13 05:17:10;;;;;;;9.40;7.78;;;;;;;;;;5120518;28;20195;-93
2020/12/13 05:19:43;;;;;;;10.85;8.00;;;;;;;;;;5120151;28;20465;-94
2020/12/13 05:22:37;;;;;;;10.10;7.68;;;;;;;;;;5120267;28;20200;-93
2020/12/13 05:25:27;;;;;;;10.20;7.95;;;;;;;;;;5120017;28;20184;-94
2020/12/13 05:27:55;;;;;;;11.38;8.20;;;;;;;;;;5120061;28;20650;-93
2020/12/13 05:30:30;;;;;;;8.10;7.25;;;;;;;;;;5119914;28;20643;-93
2020/12/13 05:33:04;;;;;;;8.70;7.25;;;;;;;;;;5120492;28;20195;-93
2020/12/13 05:35:34;;;;;;;10.48;7.32;;;;;;;;;;5119466;28;20491;-92
2020/12/13 05:38:19;;;;;;;7.65;6.32;;;;;;;;;;5120258;28;20191;-93
2020/12/13 05:40:47;;;;;;;9.85;7.70;;;;;;;;;;5120777;28;20282;-93
2020/12/13 05:43:17;;;;;;;8.88;6.43;;;;;;;;;;5119268;28;20476;-92
2020/12/13 05:46:07;;;;;;;8.52;6.78;;;;;;;;;;5119845;28;20513;-93
2020/12/13 05:49:49;;;;;;;12.85;7.60;;;;;;;;;;5119929;28;20533;-94
2020/12/13 05:52:16;;;;;;;10.45;8.10;;;;;;;;;;5115741;28;20572;-92
2020/12/13 05:54:43;;;;;;;8.98;6.43;;;;;;;;;;5120059;28;20231;-91
2020/12/13 05:57:11;;;;;;;9.40;7.47;;;;;;;;;;5119326;28;20266;-91
2020/12/13 05:59:38;;;;;;;8.27;6.82;;;;;;;;;;5119021;28;20314;-91
2020/12/13 06:02:29;;;;;;;9.85;7.35;;;;;;;;;;5119434;28;20468;-92
2020/12/13 06:04:56;;;;;;;10.10;7.13;;;;;;;;;;5114597;28;20557;-92
2020/12/13 06:07:24;;;;;;;9.98;7.57;;;;;;;;;;5119288;28;20180;-89
2020/12/13 06:09:55;;;;;;;11.15;8.45;;;;;;;;;;5119529;28;20576;-93
2020/12/13 06:12:27;;;;;;;10.27;8.05;;;;;;;;;;5119604;28;20455;-92
2020/12/13 06:14:58;;;;;;;10.90;7.13;;;;;;;;;;5118871;28;20595;-91
2020/12/13 06:17:26;;;;;;;11.45;7.55;;;;;;;;;;5119601;28;20191;-93
2020/12/13 06:19:54;;;;;;;14.40;8.20;;;;;;;;;;5119161;28;20482;-93
2020/12/13 06:22:22;;;;;;;9.82;7.35;;;;;;;;;;5119097;28;20176;-90
2020/12/13 06:24:50;;;;;;;9.38;7.00;;;;;;;;;;5118921;28;20191;-92
2020/12/13 06:27:20;;;;;;;10.10;7.22;;;;;;;;;;5118997;28;20545;-92
2020/12/13 06:29:48;;;;;;;10.75;7.15;;;;;;;;;;5118801;28;20630;-94
2020/12/13 06:32:16;;;;;;;9.45;7.78;;;;;;;;;;5119610;28;20194;-92
2020/12/13 06:34:44;;;;;;;8.85;6.60;;;;;;;;;;5119057;28;20211;-91
2020/12/13 06:37:12;;;;;;;12.02;8.32;;;;;;;;;;5119342;28;20203;-92
2020/12/13 06:39:41;;;;;;;9.50;7.30;;;;;;;;;;5119377;28;20252;-91
2020/12/13 06:42:08;;;;;;;9.60;7.32;;;;;;;;;;5119683;28;20257;-93
2020/12/13 06:44:36;;;;;;;11.63;7.07;;;;;;;;;;5120057;28;20196;-93
2020/12/13 06:47:23;;;;;;;8.40;6.30;;;;;;;;;;5118522;28;20215;-93
2020/12/13 06:49:50;;;;;;;8.93;7.00;;;;;;;;;;5119558;28;20208;-93
2020/12/13 06:52:31;;;;;;;9.38;7.75;;;;;;;;;;5119305;28;20196;-92
2020/12/13 06:55:02;;;;;;;9.38;7.13;;;;;;;;;;5119637;28;20456;-92
2020/12/13 06:57:34;;;;;;;9.63;6.75;;;;;;;;;;5119081;28;20200;-93
2020/12/13 07:00:08;;;;;;;8.77;6.88;;;;;;;;;;5122588;28;20187;-92
2020/12/13 07:02:47;;;;;;;9.63;6.97;;;;;;;;;;5123939;28;20278;-92
2020/12/13 07:05:15;;;;;;;10.38;7.72;;;;;;;;;;5123388;28;20206;-92
2020/12/13 07:07:54;;;;;;;9.38;7.20;;;;;;;;;;5122726;28;20199;-93
2020/12/13 07:10:21;;;;;;;8.75;7.13;;;;;;;;;;5122974;28;20230;-93
2020/12/13 07:12:56;;;;;;;9.25;7.85;;;;;;;;;;5123209;28;20199;-93
2020/12/13 07:15:29;;;;;;;11.35;7.82;;;;;;;;;;5122745;28;20234;-93
2020/12/13 07:17:58;;;;;;;9.65;7.88;;;;;;;;;;5122447;28;20279;-90
2020/12/13 07:20:25;;;;;;;10.82;7.97;;;;;;;;;;5122834;28;20203;-93
2020/12/13 07:22:57;;;;;;;9.80;6.97;;;;;;;;;;5122871;28;20199;-92
2020/12/13 07:25:25;;;;;;;9.90;7.57;;;;;;;;;;5122947;28;20200;-94
2020/12/13 07:27:53;;;;;;;10.43;7.93;;;;;;;;;;5122279;28;20208;-93
2020/12/13 07:30:20;;;;;;;10.73;7.78;;;;;;;;;;5122727;28;20609;-94
2020/12/13 07:32:47;;;;;;;16.27;10.80;;;;;;;;;;5121960;28;20180;-94
2020/12/13 07:35:17;;;;;;;14.38;10.30;;;;;;;;;;5121801;28;20222;-94
2020/12/13 07:37:44;;;;;;;13.57;10.27;;;;;;;;;;5122190;28;20536;-93
2020/12/13 07:40:12;;;;;;;12.48;9.75;;;;;;;;;;5121980;28;20203;-94
2020/12/13 07:42:40;;;;;;;10.43;7.75;;;;;;;;;;5122027;28;20176;-93
2020/12/13 07:45:07;;;;;;;9.18;8.23;;;;;;;;;;5121594;28;20542;-93
2020/12/13 07:47:34;;;;;;;11.75;9.30;;;;;;;;;;5122331;28;20649;-93
2020/12/13 07:50:06;;;;;;;10.25;7.45;;;;;;;;;;5122522;28;20199;-94
2020/12/13 07:52:33;;;;;;;10.68;7.88;;;;;;;;;;5122386;28;20509;-93
2020/12/13 07:55:08;;;;;;;11.60;8.38;;;;;;;;;;5122520;28;20192;-94
2020/12/13 07:57:36;;;;;;;12.95;9.73;;;;;;;;;;5121510;28;20575;-92
2020/12/13 08:00:09;;;;;;;13.77;10.32;;;;;;;;;;5121935;28;20279;-92
2020/12/13 08:02:44;;;;;;;10.80;8.38;;;;;;;;;;5121546;28;20431;-93
2020/12/13 08:05:13;;;;;;;12.32;9.85;;;;;;;;;;5121675;28;20199;-94
2020/12/13 08:07:41;;;;;;;14.57;9.25;;;;;;;;;;5121987;28;20218;-94
2020/12/13 08:10:08;;;;;;;11.18;8.05;;;;;;;;;;5121593;28;20196;-94
2020/12/13 08:12:39;;;;;;;8.82;6.75;;;;;;;;;;5121493;28;20286;-93
2020/12/13 08:15:06;;;;;;;10.38;7.80;;;;;;;;;;5121646;28;20219;-93
2020/12/13 08:17:34;;;;;;;9.50;8.05;;;;;;;;;;5121682;28;20204;-92
2020/12/13 08:20:05;;;;;;;11.57;8.57;;;;;;;;;;5121712;28;20254;-94
2020/12/13 08:22:34;;;;;;;11.45;7.88;;;;;;;;;;5120827;28;20176;-92
2020/12/13 08:25:04;;;;;;;10.98;8.07;;;;;;;;;;5121556;28;20203;-92
2020/12/13 08:27:34;;;;;;;9.65;7.88;;;;;;;;;;5121139;28;20214;-92
2020/12/13 08:30:03;;;;;;;10.45;7.28;;;;;;;;;;5120807;28;20239;-93
2020/12/13 08:32:33;;;;;;;10.55;7.43;;;;;;;;;;5121809;28;20214;-92
2020/12/13 08:35:10;;;;;;;10.35;7.97;;;;;;;;;;5121044;28;20294;-93
2020/12/13 08:37:37;;;;;;;10.05;8.77;;;;;;;;;;5120785;28;20206;-92
2020/12/13 08:40:09;;;;;;;12.82;8.02;;;;;;;;;;5120522;28;20176;-92
2020/12/13 08:42:37;;;;;;;8.57;6.88;;;;;;;;;;5121615;28;20206;-91
2020/12/13 08:45:04;;;;;;;14.13;9.90;;;;;;;;;;5120911;28;20180;-93
2020/12/13 08:47:32;;;;;;;13.13;9.38;;;;;;;;;;5120450;28;20188;-93
2020/12/13 08:50:02;;;;;;;11.05;9.07;;;;;;;;;;5120803;28;20476;-93
2020/12/13 08:52:35;;;;;;;11.23;8.85;;;;;;;;;;5121271;28;20192;-93
2020/12/13 08:55:05;;;;;;;12.82;8.70;;;;;;;;;;5120939;28;20200;-92
2020/12/13 08:57:35;;;;;;;10.35;7.97;;;;;;;;;;5120671;28;20314;-92
2020/12/13 09:00:09;;;;;;;11.60;7.90;;;;;;;;;;5120218;28;20276;-92
2020/12/13 09:02:36;;;;;;;9.82;7.25;;;;;;;;;;5121112;28;20203;-91
2020/12/13 09:05:07;;;;;;;11.98;8.32;;;;;;;;;;5120173;28;20564;-92
2020/12/13 09:07:34;;;;;;;11.95;8.35;;;;;;;;;;5120207;28;20191;-91
2020/12/13 09:10:14;;;;;;;11.77;9.68;;;;;;;;;;5120647;28;20447;-91
2020/12/13 09:12:43;;;;;;;8.55;7.65;;;;;;;;;;5120362;28;20207;-92
2020/12/13 09:15:11;;;;;;;11.05;8.00;;;;;;;;;;5120929;28;20473;-92
2020/12/13 09:17:38;;;;;;;9.95;8.52;;;;;;;;;;5120299;28;20534;-92
2020/12/13 09:20:06;;;;;;;12.95;9.15;;;;;;;;;;5121176;28;20192;-91
2020/12/13 09:22:34;;;;;;;12.10;8.63;;;;;;;;;;5119848;28;20214;-92
2020/12/13 09:25:01;;;;;;;10.82;8.57;;;;;;;;;;5120398;28;20196;-91
2020/12/13 09:27:28;;;;;;;12.52;9.57;;;;;;;;;;5120533;28;20196;-92
2020/12/13 09:29:56;;;;;;;10.52;8.65;;;;;;;;;;5120459;28;20507;-91
2020/12/13 09:32:23;;;;;;;12.13;9.35;;;;;;;;;;5119978;28;20556;-91
2020/12/13 09:34:50;;;;;;;12.05;8.73;;;;;;;;;;5119743;28;20172;-93
2020/12/13 09:37:19;;;;;;;9.32;8.05;;;;;;;;;;5120473;28;20299;-93
2020/12/13 09:39:47;;;;;;;11.13;8.30;;;;;;;;;;5120672;28;20206;-91
2020/12/13 09:42:16;;;;;;;10.82;8.88;;;;;;;;;;5120328;28;20214;-93
2020/12/13 09:44:47;;;;;;;12.68;9.18;;;;;;;;;;5119804;28;20268;-94
2020/12/13 09:47:15;;;;;;;9.80;8.30;;;;;;;;;;5120275;28;20195;-92
2020/12/13 09:49:43;;;;;;;13.35;9.90;;;;;;;;;;5119884;28;20195;-92
2020/12/13 09:52:10;;;;;;;12.65;9.23;;;;;;;;;;5119945;28;20203;-92
2020/12/13 09:54:37;;;;;;;10.85;8.45;;;;;;;;;;5119477;28;20180;-92
2020/12/13 09:57:04;;;;;;;15.35;10.00;;;;;;;;;;5119447;28;20222;-92
2020/12/13 09:59:31;;;;;;;13.05;9.38;;;;;;;;;;5119625;28;20229;-92
2020/12/13 10:01:58;;;;;;;12.90;9.23;;;;;;;;;;5119468;28;20208;-91
2020/12/13 10:04:26;;;;;;;15.52;9.98;;;;;;;;;;5119730;28;20197;-92
2020/12/13 10:07:15;;;;;;;14.02;10.65;;;;;;;;;;5120008;28;20457;-94
2020/12/13 10:09:42;;;;;;;12.23;10.00;;;;;;;;;;5119146;28;20556;-93
2020/12/13 10:12:09;;;;;;;11.43;9.07;;;;;;;;;;5119609;28;20207;-92
2020/12/13 10:14:36;;;;;;;12.02;10.57;;;;;;;;;;5119324;28;20196;-92
2020/12/13 10:17:03;;;;;;;13.35;9.68;;;;;;;;;;5119450;28;20310;-92
2020/12/13 10:19:31;;;;;;;12.35;10.27;;;;;;;;;;5119854;28;20199;-91
2020/12/13 10:21:58;;;;;;;12.38;9.65;;;;;;;;;;5120193;28;20196;-93
2020/12/13 10:24:26;;;;;;;9.73;8.57;;;;;;;;;;5119503;28;20214;-93
2020/12/13 10:26:53;;;;;;;11.35;9.05;;;;;;;;;;5120379;28;20211;-92
2020/12/13 10:29:20;;;;;;;10.05;8.82;;;;;;;;;;5118686;28;20219;-92
2020/12/13 10:31:47;;;;;;;10.27;8.80;;;;;;;;;;5119831;28;20199;-93
2020/12/13 10:34:15;;;;;;;12.55;9.27;;;;;;;;;;5122237;28;20199;-92
2020/12/13 10:36:44;;;;;;;13.43;10.57;;;;;;;;;;5124126;28;20235;-93
2020/12/13 10:39:12;;;;;;;13.25;10.25;;;;;;;;;;5122898;28;20250;-92
2020/12/13 10:41:39;;;;;;;12.70;9.40;;;;;;;;;;5123177;28;20474;-93
2020/12/13 10:44:06;;;;;;;10.43;9.18;;;;;;;;;;5123232;28;20491;-93
2020/12/13 10:46:34;;;;;;;10.70;8.88;;;;;;;;;;5122743;28;20262;-92
2020/12/13 10:49:01;;;;;;;8.85;7.80;;;;;;;;;;5123236;28;20553;-92
2020/12/13 10:51:28;;;;;;;10.63;8.13;;;;;;;;;;5123012;28;20266;-93
2020/12/13 10:53:56;;;;;;;9.38;8.10;;;;;;;;;;5123386;28;20200;-93
2020/12/13 10:56:23;;;;;;;10.32;8.05;;;;;;;;;;5123197;28;20213;-93
2020/12/13 10:58:50;;;;;;;14.00;8.13;;;;;;;;;;5122718;28;20223;-93
2020/12/13 11:01:17;;;;;;;8.65;7.50;;;;;;;;;;5123178;28;20192;-92
2020/12/13 11:03:44;;;;;;;12.40;9.27;;;;;;;;;;5122683;28;20176;-92
2020/12/13 11:06:14;;;;;;;12.50;9.88;;;;;;;;;;5123376;28;20195;-92
2020/12/13 11:08:41;;;;;;;10.60;8.27;;;;;;;;;;5123442;28;20196;-93
2020/12/13 11:11:09;;;;;;;9.40;7.57;;;;;;;;;;5123436;28;20196;-94
2020/12/13 11:13:36;;;;;;;9.60;7.32;;;;;;;;;;5122896;28;20461;-93
2020/12/13 11:16:03;;;;;;;12.35;8.60;;;;;;;;;;5122709;28;20199;-92
2020/12/13 11:18:31;;;;;;;10.40;8.23;;;;;;;;;;5122868;28;20220;-94
2020/12/13 11:20:59;;;;;;;10.05;7.93;;;;;;;;;;5122927;28;20199;-94
2020/12/13 11:23:26;;;;;;;8.75;7.82;;;;;;;;;;5121142;28;20195;-93
2020/12/13 11:25:53;;;;;;;8.60;7.47;;;;;;;;;;5107894;28;20193;-94
2020/12/13 11:28:21;;;;;;;9.32;8.15;;;;;;;;;;5117167;28;20301;-93
2020/12/13 11:30:48;;;;;;;10.57;8.52;;;;;;;;;;5122276;28;20211;-93
2020/12/13 11:33:15;;;;;;;10.93;8.88;;;;;;;;;;5122538;28;20462;-94
2020/12/13 11:35:42;;;;;;;11.50;8.85;;;;;;;;;;5122650;28;20195;-94
2020/12/13 11:38:09;;;;;;;10.38;8.90;;;;;;;;;;5122289;28;20517;-94
2020/12/13 11:40:36;;;;;;;10.07;8.75;;;;;;;;;;5122038;28;20180;-91
2020/12/13 11:43:03;;;;;;;10.88;8.75;;;;;;;;;;5121925;28;20181;-91
2020/12/13 11:45:32;;;;;;;10.48;8.25;;;;;;;;;;5122096;28;20196;-91
2020/12/13 11:48:02;;;;;;;11.57;8.55;;;;;;;;;;5118021;28;20204;-93
2020/12/13 11:50:29;;;;;;;9.63;8.70;;;;;;;;;;5054847;28;20196;-92
2020/12/13 11:52:56;;;;;;;11.73;8.68;;;;;;;;;;5109351;28;20204;-93
2020/12/13 11:55:23;;;;;;;9.85;8.77;;;;;;;;;;5101696;28;20200;-90
2020/12/13 11:57:51;;;;;;;10.63;8.23;;;;;;;;;;5103655;28;20220;-91
2020/12/13 12:00:19;;;;;;;11.45;9.15;;;;;;;;;;5101460;28;20291;-90
2020/12/13 12:02:47;;;;;;;11.40;9.32;;;;;;;;;;5089923;28;20204;-92
2020/12/13 12:05:14;;;;;;;10.75;8.85;;;;;;;;;;5095908;28;20584;-94
2020/12/13 12:07:41;;;;;;;11.57;9.13;;;;;;;;;;5095687;28;20207;-92
2020/12/13 12:10:07;;;;;;;10.43;8.90;;;;;;;;;;5096798;28;20201;-91
2020/12/13 12:12:34;;;;;;;13.93;9.38;;;;;;;;;;5119954;28;20290;-90
2020/12/13 12:15:01;;;;;;;9.77;8.18;;;;;;;;;;5102324;28;20292;-89
2020/12/13 12:17:53;;;;;;;11.10;8.93;;;;;;;;;;5116333;28;20622;-93
2020/12/13 12:20:26;;;;;;;11.48;9.40;;;;;;;;;;5111706;28;20580;-90
2020/12/13 12:22:53;;;;;;;11.38;9.82;;;;;;;;;;5118188;28;20602;-91
2020/12/13 12:25:20;;;;;;;10.48;9.35;;;;;;;;;;5120954;28;20211;-90
2020/12/13 12:27:51;;;;;;;12.60;9.40;;;;;;;;;;5121070;28;20212;-95
2020/12/13 12:30:21;;;;;;;14.23;11.70;;;;;;;;;;5121115;28;20257;-93
2020/12/13 12:32:48;;;;;;;12.10;9.65;;;;;;;;;;5121105;28;20224;-92
2020/12/13 12:35:16;;;;;;;12.65;10.00;;;;;;;;;;5121830;28;20196;-95
2020/12/13 12:37:43;;;;;;;13.20;9.63;;;;;;;;;;5121671;28;20321;-94
2020/12/13 12:40:19;;;;;;;14.40;9.07;;;;;;;;;;5121163;28;20313;-94
2020/12/13 12:42:46;;;;;;;11.75;9.77;;;;;;;;;;5121022;28;20213;-92
2020/12/13 12:45:13;;;;;;;10.60;9.50;;;;;;;;;;5120751;28;20599;-92
2020/12/13 12:47:59;;;;;;;;;;;;;;;;;;;;;
2020/12/13 12:50:28;;;;;;;11.30;9.40;;;;;;;;;;5121491;28;20192;-93
2020/12/13 12:52:57;;;;;;;9.57;8.57;;;;;;;;;;5105021;28;20295;-91
2020/12/13 12:58:49;;;;;;;7.85;7.10;;;;;;;;;;5038549;28;20218;-89
2020/12/13 13:01:18;;;;;;;7.65;6.65;;;;;;;;;;5036123;28;20205;-93
2020/12/13 13:03:48;;;;;;;6.43;5.75;;;;;;;;;;5039387;28;20240;-92
2020/12/13 13:06:43;;;;;;;7.07;6.38;;;;;;;;;;5036180;28;20217;-93
2020/12/13 13:09:16;;;;;;;7.53;6.05;;;;;;;;;;5028103;28;20203;-92
2020/12/13 13:11:43;;;;;;;7.38;6.68;;;;;;;;;;5026677;28;20186;-91
2020/12/13 13:14:11;;;;;;;7.38;6.68;;;;;;;;;;5027351;28;20224;-90
2020/12/13 13:16:38;;;;;;;7.43;6.22;;;;;;;;;;5045043;28;20551;-88
2020/12/13 13:19:08;;;;;;;7.70;6.65;;;;;;;;;;5042115;28;20222;-87
2020/12/13 13:21:39;;;;;;;6.38;5.78;;;;;;;;;;5038690;28;20198;-87
2020/12/13 13:24:07;;;;;;;6.90;5.75;;;;;;;;;;5034274;28;20630;-88
2020/12/13 13:26:34;;;;;;;6.72;5.50;;;;;;;;;;5038532;28;20207;-86
2020/12/13 13:29:01;;;;;;;6.78;5.35;;;;;;;;;;5038984;28;20303;-88
2020/12/13 13:31:28;;;;;;;6.63;5.97;;;;;;;;;;5036566;28;20195;-87
2020/12/13 13:33:58;;;;;;;5.63;4.70;;;;;;;;;;5051793;28;20202;-86
2020/12/13 13:36:25;;;;;;;4.85;4.35;;;;;;;;;;5077176;28;20220;-87
2020/12/13 13:38:53;;;;;;;5.55;5.05;;;;;;;;;;5068136;28;20257;-86
2020/12/13 13:41:24;;;;;;;7.78;6.75;;;;;;;;;;5061518;28;20469;-89
2020/12/13 13:43:54;;;;;;;9.05;7.68;;;;;;;;;;5073077;28;20279;-88
2020/12/13 13:49:26;;;;;;;12.23;9.13;;;;;;;;;;5074173;28;20190;-86
2020/12/13 13:51:53;;;;;;;13.63;10.63;;;;;;;;;;5070094;28;20205;-90
2020/12/13 13:54:23;;;;;;;17.27;12.27;;;;;;;;;;5065841;28;20224;-91
2020/12/13 13:56:57;;;;;;;14.80;11.30;;;;;;;;;;5074692;28;20246;-87
2020/12/13 13:59:27;;;;;;;12.60;10.50;;;;;;;;;;5075246;28;20418;-92
2020/12/13 14:05:00;;;;;;;9.43;8.52;;;;;;;;;;5075605;28;20251;-95
2020/12/13 14:07:41;;;;;;;12.07;8.85;;;;;;;;;;5083409;28;20205;-95
2020/12/13 14:10:12;;;;;;;10.80;8.85;;;;;;;;;;5085904;28;20189;-94
2020/12/13 14:12:42;;;;;;;10.80;9.10;;;;;;;;;;5078982;28;20197;-93
2020/12/13 14:15:09;;;;;;;10.13;8.48;;;;;;;;;;5077656;28;20193;-89
2020/12/13 14:17:36;;;;;;;10.07;8.98;;;;;;;;;;5077963;28;20505;-89
2020/12/13 14:20:04;;;;;;;8.95;7.80;;;;;;;;;;5077794;28;20280;-89
2020/12/13 14:22:31;;;;;;;11.07;9.20;;;;;;;;;;5077562;28;20189;-88
2020/12/13 14:24:58;;;;;;;11.98;9.57;;;;;;;;;;5078382;28;20218;-91
2020/12/13 14:31:03;;;;;;;10.20;8.25;;;;;;;;;;5182542;22;20228;-93
2020/12/13 14:33:41;;;;;;;;;;;;;;;;;;;;;
2020/12/13 14:36:17;;;;;;;12.65;9.07;;;;;;;;;;5078045;28;20180;-95
2020/12/13 14:38:44;;;;;;;9.75;8.35;;;;;;;;;;5079002;28;20224;-95
2020/12/13 14:41:12;;;;;;;13.07;9.55;;;;;;;;;;5078513;28;20227;-95
2020/12/13 14:43:42;;;;;;;11.13;9.45;;;;;;;;;;5080060;28;20307;-95
2020/12/13 14:46:12;;;;;;;8.75;7.65;;;;;;;;;;5079342;28;20271;-95
2020/12/13 14:48:39;;;;;;;13.85;8.35;;;;;;;;;;5079286;28;20201;-95
2020/12/13 14:51:08;;;;;;;8.85;7.95;;;;;;;;;;5079974;28;20520;-95
2020/12/13 14:53:35;;;;;;;8.13;7.32;;;;;;;;;;5079450;28;20217;-96
2020/12/13 14:56:04;;;;;;;8.93;7.35;;;;;;;;;;5079403;28;20467;-96
2020/12/13 14:58:31;;;;;;;8.75;7.82;;;;;;;;;;5085424;28;20463;-95
2020/12/13 15:00:58;;;;;;;9.65;8.20;;;;;;;;;;5099210;28;20207;-95
2020/12/13 15:03:27;;;;;;;10.40;8.23;;;;;;;;;;5098476;28;20479;-94
2020/12/13 15:10:27;;;;;;;6.93;6.30;;;;;;;;;;5016783;28;20198;-95
2020/12/13 15:12:54;;;;;;;8.52;6.97;;;;;;;;;;5017332;28;20199;-94